Terminal Aerodrome Forecast
Issued by NWS Sterling, VA

Home | Current Version | Previous Version | Text Only | Print | Product List | Glossary On
Versions: 1 2 3 4 5 6 7 8 9 10 11 12 13 14 15 16 17 18 19 20 21 22 23 24 25 26 27 28 29 30 31 32
933
FTUS41 KLWX 042053 AAB
TAFIAD
TAF AMD
KIAD 042053Z 0421/0524 08007KT P6SM -SHRA VCTS OVC021CB
     FM042300 08006KT P6SM OVC015
     FM050300 05005KT 5SM -SHRA BR OVC008
     FM051200 04007KT 3SM -SHRA OVC008=

USA.gov is the U.S. government's official web portal to all federal, state and local government web resources and services.